createdAt,value
2022-10-26T00:03:46.807Z,2.10
2022-10-26T00:06:26.952Z,2.40
2022-10-26T00:08:56.670Z,2.30
2022-10-26T00:11:24.636Z,2.40
2022-10-26T00:13:52.168Z,2.30
2022-10-26T00:16:27.160Z,2.20
2022-10-26T00:18:54.826Z,2.30
2022-10-26T00:21:22.134Z,2.00
2022-10-26T00:23:49.464Z,2.30
2022-10-26T00:26:16.976Z,1.80
2022-10-26T00:28:44.349Z,2.40
2022-10-26T00:31:15.054Z,2.20
2022-10-26T00:33:42.523Z,2.30
2022-10-26T00:36:10.967Z,2.20
2022-10-26T00:38:38.501Z,2.10
2022-10-26T00:41:06.025Z,2.40
2022-10-26T00:43:39.986Z,2.20
2022-10-26T00:46:13.961Z,2.40
2022-10-26T00:48:47.038Z,2.10
2022-10-26T00:51:47.702Z,2.20
2022-10-26T00:54:18.612Z,2.00
2022-10-26T00:56:49.621Z,2.40
2022-10-26T00:59:17.996Z,1.80
2022-10-26T01:01:47.986Z,1.90
2022-10-26T01:04:16.315Z,2.10
2022-10-26T01:06:44.951Z,2.40
2022-10-26T01:09:13.196Z,2.10
2022-10-26T01:11:40.549Z,3.00
2022-10-26T01:14:10.441Z,2.10
2022-10-26T01:16:56.371Z,1.80
2022-10-26T01:19:23.696Z,1.90
2022-10-26T01:22:08.762Z,1.90
2022-10-26T01:24:47.469Z,2.20
2022-10-26T01:27:28.683Z,2.50
2022-10-26T01:30:26.826Z,1.70
2022-10-26T01:33:34.518Z,2.10
2022-10-26T01:36:33.805Z,1.80
2022-10-26T01:39:53.833Z,2.30
2022-10-26T01:42:23.863Z,2.20
2022-10-26T01:45:01.167Z,2.60
2022-10-26T01:47:30.591Z,2.30
2022-10-26T01:50:00.891Z,2.10
2022-10-26T01:52:28.712Z,2.30
2022-10-26T01:55:27.223Z,2.30
2022-10-26T01:58:08.828Z,2.00
2022-10-26T02:00:40.243Z,2.10
2022-10-26T02:03:31.968Z,1.90
2022-10-26T02:06:12.743Z,2.00
2022-10-26T02:09:08.526Z,2.50
2022-10-26T02:11:49.365Z,2.20
2022-10-26T02:14:35.949Z,2.80
2022-10-26T02:17:44.057Z,2.40
2022-10-26T02:20:20.588Z,2.40
2022-10-26T02:22:51.583Z,2.20
2022-10-26T02:25:31.965Z,2.00
2022-10-26T02:28:06.223Z,2.80
2022-10-26T02:30:35.680Z,2.40
2022-10-26T02:33:05.662Z,3.20
2022-10-26T02:35:37.116Z,2.40
2022-10-26T02:38:09.441Z,2.20
2022-10-26T02:40:38.417Z,2.30
2022-10-26T02:43:12.060Z,2.20
2022-10-26T02:45:47.548Z,2.40
2022-10-26T02:48:15.506Z,2.40
2022-10-26T02:51:21.063Z,2.30
2022-10-26T02:53:55.841Z,2.60
2022-10-26T02:56:34.380Z,2.80
2022-10-26T02:59:05.922Z,3.70
2022-10-26T03:01:34.402Z,3.10
2022-10-26T03:04:02.176Z,3.10
2022-10-26T03:06:29.639Z,3.00
2022-10-26T03:08:57.149Z,3.80
2022-10-26T03:11:24.484Z,2.50
2022-10-26T03:13:51.812Z,2.70
2022-10-26T03:16:19.133Z,2.80
2022-10-26T03:18:46.461Z,2.70
2022-10-26T03:21:13.741Z,2.60
2022-10-26T03:23:41.973Z,2.20
2022-10-26T03:26:09.287Z,2.20
2022-10-26T03:28:36.555Z,2.20
2022-10-26T03:31:03.914Z,2.40
2022-10-26T03:33:31.366Z,2.10
2022-10-26T03:35:58.708Z,2.50
2022-10-26T03:38:26.026Z,2.20
2022-10-26T03:40:53.574Z,2.80
2022-10-26T03:43:20.975Z,2.60
2022-10-26T03:45:48.408Z,2.90
2022-10-26T03:48:15.779Z,2.50
2022-10-26T03:50:43.175Z,2.60
2022-10-26T03:53:10.995Z,2.50
2022-10-26T03:55:38.442Z,2.70
2022-10-26T03:58:05.830Z,2.60
2022-10-26T04:00:33.149Z,2.70
2022-10-26T04:03:00.797Z,2.60
2022-10-26T04:05:29.745Z,2.50
2022-10-26T04:08:03.239Z,2.10
2022-10-26T04:10:32.118Z,2.20
2022-10-26T04:13:01.225Z,2.60
2022-10-26T04:15:29.278Z,2.40
2022-10-26T04:17:58.827Z,2.30
2022-10-26T04:20:28.253Z,2.70
2022-10-26T04:23:05.629Z,2.80
2022-10-26T04:25:34.001Z,2.90
2022-10-26T04:28:03.422Z,2.70
2022-10-26T04:30:32.033Z,3.00
2022-10-26T04:33:00.072Z,2.40
2022-10-26T04:35:28.006Z,2.70
2022-10-26T04:38:00.127Z,2.90
2022-10-26T04:40:32.574Z,2.50
2022-10-26T04:42:59.901Z,2.40
2022-10-26T04:45:31.180Z,2.40
2022-10-26T04:48:11.123Z,2.20
2022-10-26T04:50:40.445Z,2.40
2022-10-26T04:53:09.176Z,2.60
2022-10-26T04:55:37.460Z,2.40
2022-10-26T04:58:06.043Z,2.30
2022-10-26T05:00:34.724Z,2.10
2022-10-26T05:03:04.251Z,2.10
2022-10-26T05:05:33.650Z,2.30
2022-10-26T05:08:01.111Z,2.50
2022-10-26T05:10:28.764Z,2.70
2022-10-26T05:12:58.367Z,2.80
2022-10-26T05:15:26.911Z,3.00
2022-10-26T05:18:03.078Z,2.60
2022-10-26T05:20:33.336Z,2.60
2022-10-26T05:23:04.146Z,2.60
2022-10-26T05:25:35.237Z,2.80
2022-10-26T05:28:09.590Z,2.30
2022-10-26T05:30:37.115Z,2.70
2022-10-26T05:33:04.546Z,2.80
2022-10-26T05:35:32.693Z,2.40
2022-10-26T05:38:00.342Z,2.40
2022-10-26T05:40:28.155Z,2.30
2022-10-26T05:43:01.085Z,2.50
2022-10-26T05:45:29.563Z,2.40
2022-10-26T05:47:59.971Z,2.50
2022-10-26T05:50:30.417Z,2.30
2022-10-26T05:52:57.805Z,2.40
2022-10-26T05:55:25.754Z,2.40
2022-10-26T05:57:53.773Z,2.10
2022-10-26T06:00:25.235Z,2.30
2022-10-26T06:03:12.335Z,2.50
2022-10-26T06:05:57.345Z,2.70
2022-10-26T06:08:28.436Z,2.50
2022-10-26T06:10:59.486Z,2.60
2022-10-26T06:13:27.296Z,2.30
2022-10-26T06:16:27.490Z,2.60
2022-10-26T06:19:25.639Z,2.50
2022-10-26T06:22:11.126Z,2.30
2022-10-26T06:24:50.878Z,2.60
2022-10-26T06:27:56.918Z,2.70
2022-10-26T06:30:24.944Z,2.30
2022-10-26T06:33:06.316Z,2.50
2022-10-26T06:35:58.661Z,2.20
2022-10-26T06:38:28.477Z,2.90
2022-10-26T06:40:57.283Z,2.30
2022-10-26T06:43:28.349Z,2.80
2022-10-26T06:46:07.873Z,2.70
2022-10-26T06:49:19.253Z,2.80
2022-10-26T06:52:01.567Z,2.90
2022-10-26T06:54:47.378Z,2.60
2022-10-26T06:57:17.480Z,2.50
2022-10-26T07:00:03.293Z,2.40
2022-10-26T07:02:31.492Z,2.50
2022-10-26T07:04:58.960Z,3.10
2022-10-26T07:07:31.309Z,2.90
2022-10-26T07:09:58.728Z,3.10
2022-10-26T07:12:29.600Z,2.40
2022-10-26T07:15:00.747Z,2.80
2022-10-26T07:17:29.173Z,3.10
2022-10-26T07:19:56.809Z,3.20
2022-10-26T07:22:25.304Z,2.30
2022-10-26T07:24:53.321Z,3.20
2022-10-26T07:27:20.850Z,3.10
2022-10-26T07:29:48.409Z,2.70
2022-10-26T07:32:15.778Z,2.80
2022-10-26T07:34:43.096Z,2.60
2022-10-26T07:37:10.480Z,2.40
2022-10-26T07:39:37.808Z,2.70
2022-10-26T07:42:05.232Z,2.70
2022-10-26T07:44:32.701Z,2.70
2022-10-26T07:47:00.778Z,2.70
2022-10-26T07:49:28.117Z,2.60
2022-10-26T07:51:55.719Z,2.60
2022-10-26T07:54:23.051Z,2.90
2022-10-26T07:56:50.462Z,3.00
2022-10-26T07:59:18.433Z,2.30
2022-10-26T08:01:46.089Z,3.20
2022-10-26T08:04:13.492Z,3.40
2022-10-26T08:06:40.931Z,2.60
2022-10-26T08:09:08.386Z,2.80
2022-10-26T08:11:37.143Z,2.90
2022-10-26T08:14:04.722Z,2.60
2022-10-26T08:16:32.241Z,2.60
2022-10-26T08:18:59.618Z,2.90
2022-10-26T08:21:36.506Z,3.10
2022-10-26T08:24:07.114Z,2.80
2022-10-26T08:26:34.734Z,2.20
2022-10-26T08:29:02.088Z,3.10
2022-10-26T08:31:30.873Z,2.50
2022-10-26T08:33:58.249Z,2.80
2022-10-26T08:36:27.963Z,3.10
2022-10-26T08:38:55.378Z,2.80
2022-10-26T08:41:45.247Z,3.00
2022-10-26T08:44:29.909Z,2.70
2022-10-26T08:47:23.149Z,2.50
2022-10-26T08:50:14.404Z,2.60
2022-10-26T08:53:02.225Z,2.60
2022-10-26T08:56:01.289Z,2.60
2022-10-26T08:58:36.795Z,2.40
2022-10-26T09:01:05.453Z,2.60
2022-10-26T09:03:33.783Z,2.30
2022-10-26T09:06:26.564Z,2.70
2022-10-26T09:09:05.721Z,3.10
2022-10-26T09:12:04.049Z,2.90
2022-10-26T09:14:53.926Z,2.20
2022-10-26T09:18:01.390Z,1.90
2022-10-26T09:20:37.267Z,2.10
2022-10-26T09:23:19.411Z,2.50
2022-10-26T09:25:58.781Z,2.30
2022-10-26T09:28:30.655Z,2.30
2022-10-26T09:31:01.349Z,2.20
2022-10-26T09:33:31.406Z,2.50
2022-10-26T09:36:07.352Z,2.30
2022-10-26T09:38:42.078Z,2.10
2022-10-26T09:41:44.325Z,2.60
2022-10-26T09:44:39.622Z,3.10
2022-10-26T09:47:30.513Z,2.50
2022-10-26T09:50:12.754Z,2.60
2022-10-26T09:52:40.184Z,2.00
2022-10-26T09:55:12.417Z,2.70
2022-10-26T09:57:45.107Z,2.40
2022-10-26T10:00:18.506Z,3.10
2022-10-26T10:02:54.606Z,2.90
2022-10-26T10:05:45.814Z,2.40
2022-10-26T10:08:25.171Z,2.70
2022-10-26T10:11:13.719Z,2.30
2022-10-26T10:13:44.979Z,1.70
2022-10-26T10:16:22.347Z,1.80
2022-10-26T10:18:56.813Z,2.50
2022-10-26T10:21:45.650Z,2.30
2022-10-26T10:24:30.820Z,1.80
2022-10-26T10:27:05.240Z,2.20
2022-10-26T10:29:42.856Z,2.20
2022-10-26T10:32:34.057Z,1.90
2022-10-26T10:35:24.373Z,1.90
2022-10-26T10:37:52.734Z,2.10
2022-10-26T10:40:25.613Z,2.00
2022-10-26T10:43:07.385Z,2.20
2022-10-26T10:45:36.091Z,2.40
2022-10-26T10:48:12.848Z,2.10
2022-10-26T10:50:54.787Z,1.70
2022-10-26T10:53:43.776Z,2.00
2022-10-26T10:56:41.026Z,1.80
2022-10-26T10:59:48.970Z,2.00
2022-10-26T11:02:34.743Z,2.50
2022-10-26T11:05:27.416Z,1.60
2022-10-26T11:08:07.550Z,1.70
2022-10-26T11:10:42.333Z,1.70
2022-10-26T11:13:23.159Z,1.40
2022-10-26T11:15:56.670Z,1.80
2022-10-26T11:18:35.475Z,1.60
2022-10-26T11:21:22.462Z,1.80
2022-10-26T11:23:57.427Z,1.70
2022-10-26T11:26:42.346Z,1.90
2022-10-26T11:29:24.107Z,1.90
2022-10-26T11:32:01.713Z,2.10
2022-10-26T11:34:39.665Z,2.00
2022-10-26T11:37:37.497Z,1.40
2022-10-26T11:40:58.617Z,1.30
2022-10-26T11:43:39.551Z,1.60
2022-10-26T11:46:22.144Z,1.60
2022-10-26T11:49:12.519Z,1.90
2022-10-26T11:52:17.785Z,1.60
2022-10-26T11:54:53.931Z,1.70
2022-10-26T11:57:26.160Z,2.00
2022-10-26T12:00:00.033Z,1.60
2022-10-26T12:02:28.762Z,1.50
2022-10-26T12:05:32.525Z,2.00
2022-10-26T12:08:07.007Z,1.80
2022-10-26T12:10:39.669Z,2.20
2022-10-26T12:13:28.880Z,1.50
2022-10-26T12:16:09.338Z,1.70
2022-10-26T12:18:55.438Z,1.70
2022-10-26T12:21:32.123Z,1.60
2022-10-26T12:24:22.422Z,1.60
2022-10-26T12:26:52.527Z,1.50
2022-10-26T12:29:29.062Z,1.80
2022-10-26T12:31:56.910Z,1.60
2022-10-26T12:34:31.156Z,1.60
2022-10-26T12:37:29.550Z,1.70
2022-10-26T12:40:34.648Z,1.80
2022-10-26T12:43:24.940Z,1.00
2022-10-26T12:46:14.203Z,1.20
2022-10-26T12:48:46.008Z,1.80
2022-10-26T12:51:22.447Z,1.30
2022-10-26T12:54:17.216Z,1.60
2022-10-26T12:57:11.004Z,1.30
2022-10-26T13:00:01.093Z,2.20
2022-10-26T13:02:55.102Z,1.20
2022-10-26T13:05:38.073Z,1.80
2022-10-26T13:08:10.872Z,1.70
2022-10-26T13:11:00.089Z,1.30
2022-10-26T13:13:31.848Z,1.50
2022-10-26T13:16:01.656Z,1.20
2022-10-26T13:18:29.939Z,1.40
2022-10-26T13:21:11.670Z,1.30
2022-10-26T13:23:46.253Z,1.30
2022-10-26T13:26:18.619Z,1.20
2022-10-26T13:28:50.484Z,1.70
2022-10-26T13:31:31.325Z,1.40
2022-10-26T13:36:39.376Z,1.10
2022-10-26T13:39:15.674Z,1.80
2022-10-26T13:41:46.707Z,1.50
2022-10-26T13:44:25.175Z,1.80
2022-10-26T13:47:09.876Z,1.30
2022-10-26T13:49:41.381Z,1.30
2022-10-26T13:52:33.056Z,1.20
2022-10-26T13:55:09.550Z,1.90
2022-10-26T13:57:43.652Z,1.30
2022-10-26T14:00:21.778Z,1.60
2022-10-26T14:02:49.754Z,1.40
2022-10-26T14:05:19.179Z,1.20
2022-10-26T14:07:57.594Z,1.40
2022-10-26T14:10:40.998Z,1.30
2022-10-26T14:15:59.165Z,1.30
2022-10-26T14:18:30.260Z,1.60
2022-10-26T14:21:03.413Z,1.40
2022-10-26T14:23:55.979Z,1.50
2022-10-26T14:26:38.481Z,1.70
2022-10-26T14:29:23.589Z,1.50
2022-10-26T14:31:51.706Z,1.80
2022-10-26T14:34:19.606Z,1.50
2022-10-26T14:36:56.130Z,1.40
2022-10-26T14:39:43.750Z,1.50
2022-10-26T14:42:33.256Z,1.30
2022-10-26T14:45:02.167Z,1.50
2022-10-26T14:47:33.022Z,1.30
2022-10-26T14:50:01.754Z,1.30
2022-10-26T14:52:33.150Z,1.40
2022-10-26T14:55:13.431Z,1.40
2022-10-26T14:57:44.281Z,1.60
2022-10-26T15:00:13.783Z,1.10
2022-10-26T15:02:43.158Z,1.20
2022-10-26T15:05:24.413Z,1.10
2022-10-26T15:07:53.214Z,1.10
2022-10-26T15:10:36.289Z,1.40
2022-10-26T15:13:32.161Z,1.90
2022-10-26T15:16:15.595Z,1.20
2022-10-26T15:18:49.118Z,1.20
2022-10-26T15:21:30.808Z,1.70
2022-10-26T15:23:59.316Z,1.50
2022-10-26T15:26:27.024Z,1.10
2022-10-26T15:28:54.988Z,1.30
2022-10-26T15:31:22.689Z,1.30
2022-10-26T15:33:52.829Z,1.10
2022-10-26T15:36:27.986Z,1.10
2022-10-26T15:38:55.871Z,1.20
2022-10-26T15:41:33.066Z,1.70
2022-10-26T15:44:06.013Z,1.20
2022-10-26T15:46:36.546Z,1.60
2022-10-26T15:49:07.228Z,1.30
2022-10-26T15:51:34.956Z,1.90
2022-10-26T15:54:04.826Z,1.60
2022-10-26T15:56:32.650Z,1.50
2022-10-26T15:59:00.075Z,1.40
2022-10-26T16:01:29.390Z,1.60
2022-10-26T16:03:56.885Z,1.70
2022-10-26T16:06:29.317Z,1.80
2022-10-26T16:09:04.282Z,1.60
2022-10-26T16:11:31.775Z,1.60
2022-10-26T16:14:02.727Z,1.50
2022-10-26T16:16:31.638Z,1.50
2022-10-26T16:19:18.480Z,1.40
2022-10-26T16:21:46.452Z,1.70
2022-10-26T16:24:13.969Z,1.70
2022-10-26T16:26:41.530Z,1.80
2022-10-26T16:29:08.924Z,1.80
2022-10-26T16:31:36.381Z,1.70
2022-10-26T16:34:04.355Z,1.90
2022-10-26T16:36:34.935Z,1.90
2022-10-26T16:41:35.117Z,1.70
2022-10-26T16:44:02.624Z,1.70
2022-10-26T16:46:30.009Z,1.90
2022-10-26T16:48:57.457Z,1.90
2022-10-26T16:51:27.863Z,1.90
2022-10-26T16:53:57.148Z,1.90
2022-10-26T16:56:30.477Z,1.80
2022-10-26T16:58:57.895Z,2.10
2022-10-26T17:01:25.822Z,2.30
2022-10-26T17:03:53.784Z,2.30
2022-10-26T17:06:22.411Z,2.20
2022-10-26T17:08:49.786Z,2.40
2022-10-26T17:11:20.298Z,2.60
2022-10-26T17:13:53.648Z,2.80
2022-10-26T17:16:23.438Z,3.30
2022-10-26T17:18:51.891Z,2.50
2022-10-26T17:21:28.587Z,2.90
2022-10-26T17:23:55.953Z,2.50
2022-10-26T17:26:23.717Z,2.10
2022-10-26T17:28:52.838Z,2.10
2022-10-26T17:31:20.504Z,2.50
2022-10-26T17:33:51.044Z,2.50
2022-10-26T17:36:21.883Z,2.80
2022-10-26T17:38:53.165Z,3.10
2022-10-26T17:41:22.862Z,2.60
2022-10-26T17:43:50.833Z,3.00
2022-10-26T17:46:22.995Z,2.90
2022-10-26T17:48:56.341Z,4.10
2022-10-26T17:51:24.587Z,3.10
2022-10-26T17:53:52.968Z,3.10
2022-10-26T17:56:29.682Z,2.80
2022-10-26T17:59:00.725Z,2.90
2022-10-26T18:03:56.273Z,3.20
2022-10-26T18:06:24.316Z,3.30
2022-10-26T18:08:51.696Z,2.80
2022-10-26T18:11:26.452Z,4.50
2022-10-26T18:13:55.488Z,4.30
2022-10-26T18:16:26.576Z,5.10
2022-10-26T18:21:33.498Z,4.00
2022-10-26T18:24:00.970Z,7.30
2022-10-26T18:26:30.116Z,5.90
2022-10-26T18:28:59.181Z,5.10
2022-10-26T18:31:28.884Z,5.30
2022-10-26T18:34:02.342Z,4.90
2022-10-26T18:36:30.197Z,4.40
2022-10-26T18:38:57.985Z,4.70
2022-10-26T18:41:26.346Z,4.50
2022-10-26T18:43:58.986Z,5.20
2022-10-26T18:46:33.459Z,7.00
2022-10-26T18:49:01.300Z,11.40
2022-10-26T18:51:34.697Z,14.20
2022-10-26T18:54:02.620Z,13.10
2022-10-26T18:56:30.737Z,12.30
2022-10-26T18:59:00.022Z,10.30
2022-10-26T19:01:30.742Z,10.10
2022-10-26T19:04:01.622Z,10.00
2022-10-26T19:06:35.717Z,12.00
2022-10-26T19:09:04.835Z,10.30
2022-10-26T19:11:33.295Z,8.00
2022-10-26T19:14:00.782Z,6.70
2022-10-26T19:16:45.144Z,7.20
2022-10-26T19:19:15.602Z,13.60
2022-10-26T19:21:43.998Z,10.20
2022-10-26T19:24:15.658Z,10.20
2022-10-26T19:26:44.163Z,8.90
2022-10-26T19:29:17.367Z,6.40
2022-10-26T19:31:46.623Z,4.90
2022-10-26T19:34:20.520Z,4.40
2022-10-26T19:36:48.518Z,4.90
2022-10-26T19:39:19.441Z,6.40
2022-10-26T19:41:47.152Z,5.20
2022-10-26T19:44:15.707Z,4.60
2022-10-26T19:46:44.556Z,4.70
2022-10-26T19:49:12.898Z,4.90
2022-10-26T19:51:40.641Z,6.30
2022-10-26T19:54:08.700Z,5.40
2022-10-26T19:56:37.441Z,6.50
2022-10-26T19:59:06.367Z,7.40
2022-10-26T20:01:34.324Z,6.60
2022-10-26T20:04:02.712Z,5.90
2022-10-26T20:06:31.047Z,5.10
2022-10-26T20:08:59.871Z,4.90
2022-10-26T20:11:27.295Z,5.40
2022-10-26T20:13:57.453Z,5.00
2022-10-26T20:16:25.188Z,4.80
2022-10-26T20:18:52.765Z,4.60
2022-10-26T20:21:20.676Z,4.40
2022-10-26T20:23:48.027Z,4.20
2022-10-26T20:26:20.164Z,4.50
2022-10-26T20:28:51.356Z,4.00
2022-10-26T20:31:19.806Z,3.70
2022-10-26T20:33:53.871Z,3.90
2022-10-26T20:36:21.597Z,3.90
2022-10-26T20:38:49.667Z,3.70
2022-10-26T20:41:17.921Z,3.20
2022-10-26T20:43:45.974Z,3.40
2022-10-26T20:46:25.015Z,3.10
2022-10-26T20:48:53.999Z,3.30
2022-10-26T20:51:39.950Z,2.80
2022-10-26T20:54:24.262Z,3.50
2022-10-26T20:56:53.293Z,2.80
2022-10-26T20:59:29.723Z,3.10
2022-10-26T21:01:57.353Z,3.10
2022-10-26T21:04:24.894Z,3.20
2022-10-26T21:06:52.346Z,3.40
2022-10-26T21:09:22.111Z,2.90
2022-10-26T21:14:18.525Z,3.70
2022-10-26T21:16:46.048Z,3.40
2022-10-26T21:19:13.559Z,4.60
2022-10-26T21:21:41.347Z,6.50
2022-10-26T21:24:08.939Z,8.70
2022-10-26T21:26:36.388Z,7.80
2022-10-26T21:29:04.473Z,8.90
2022-10-26T21:31:33.234Z,5.20
2022-10-26T21:34:00.788Z,3.60
2022-10-26T21:36:28.455Z,3.70
2022-10-26T21:38:56.256Z,2.70
2022-10-26T21:41:28.528Z,2.30
2022-10-26T21:44:03.712Z,2.40
2022-10-26T21:46:38.815Z,2.60
2022-10-26T21:49:06.573Z,2.70
2022-10-26T21:51:35.196Z,2.50
2022-10-26T21:54:04.261Z,2.30
2022-10-26T21:56:31.785Z,2.50
2022-10-26T21:59:01.570Z,2.40
2022-10-26T22:01:29.282Z,2.10
2022-10-26T22:03:56.969Z,2.30
2022-10-26T22:06:24.489Z,2.60
2022-10-26T22:08:52.010Z,2.40
2022-10-26T22:11:23.806Z,2.50
2022-10-26T22:13:52.137Z,2.40
2022-10-26T22:16:28.619Z,2.60
2022-10-26T22:19:04.366Z,2.40
2022-10-26T22:21:40.307Z,2.70
2022-10-26T22:24:09.288Z,2.00
2022-10-26T22:26:37.686Z,2.30
2022-10-26T22:29:05.564Z,2.00
2022-10-26T22:31:39.883Z,2.30
2022-10-26T22:34:14.119Z,1.80
2022-10-26T22:36:42.195Z,2.20
2022-10-26T22:39:09.760Z,2.00
2022-10-26T22:41:37.200Z,2.20
2022-10-26T22:44:04.863Z,2.20
2022-10-26T22:46:32.431Z,2.20
2022-10-26T22:49:01.842Z,1.80
2022-10-26T22:51:34.928Z,2.10
2022-10-26T22:54:04.649Z,1.80
2022-10-26T22:56:34.184Z,1.70
2022-10-26T22:59:01.807Z,1.70
2022-10-26T23:01:36.002Z,2.10
2022-10-26T23:04:03.902Z,2.20
2022-10-26T23:06:32.898Z,2.10
2022-10-26T23:09:00.384Z,2.40
2022-10-26T23:11:29.296Z,2.10
2022-10-26T23:13:59.769Z,1.70
2022-10-26T23:16:28.499Z,2.40
2022-10-26T23:18:56.643Z,2.00
2022-10-26T23:23:58.526Z,2.50
2022-10-26T23:26:26.122Z,2.10
2022-10-26T23:28:53.445Z,1.90
2022-10-26T23:31:25.654Z,1.50
2022-10-26T23:33:55.681Z,2.00
2022-10-26T23:36:24.204Z,1.80
2022-10-26T23:38:51.849Z,1.70
2022-10-26T23:41:19.210Z,2.00
2022-10-26T23:43:46.559Z,1.70
2022-10-26T23:46:14.095Z,2.00
2022-10-26T23:48:41.607Z,2.10
2022-10-26T23:51:08.921Z,3.00
2022-10-26T23:53:36.283Z,2.70
2022-10-26T23:56:03.787Z,2.50
2022-10-26T23:58:31.136Z,1.70
